地図

経路データ

SID SEASON NUMBER BASIN SUBBASIN NAME ISO_TIME NATURE LAT LON WMO_WIND WMO_PRES WMO_AGENCY TRACK_TYPE DIST2LAND LANDFALL IFLAG USA_AGENCY USA_ATCF_ID USA_LAT USA_LON USA_RECORD USA_STATUS USA_WIND USA_PRES USA_SSHS USA_R34_NE USA_R34_SE USA_R34_SW USA_R34_NW USA_R50_NE USA_R50_SE USA_R50_SW USA_R50_NW USA_R64_NE USA_R64_SE USA_R64_SW USA_R64_NW USA_POCI USA_ROCI USA_RMW USA_EYE TOKYO_LAT TOKYO_LON TOKYO_GRADE TOKYO_WIND TOKYO_PRES TOKYO_R50_DIR TOKYO_R50_LONG TOKYO_R50_SHORT TOKYO_R30_DIR TOKYO_R30_LONG TOKYO_R30_SHORT TOKYO_LAND CMA_LAT CMA_LON CMA_CAT CMA_WIND CMA_PRES HKO_LAT HKO_LON HKO_CAT HKO_WIND HKO_PRES NEWDELHI_LAT NEWDELHI_LON NEWDELHI_GRADE NEWDELHI_WIND NEWDELHI_PRES NEWDELHI_CI NEWDELHI_DP NEWDELHI_POCI REUNION_LAT REUNION_LON REUNION_TYPE REUNION_WIND REUNION_PRES REUNION_TNUM REUNION_CI REUNION_RMW REUNION_R34_NE REUNION_R34_SE REUNION_R34_SW REUNION_R34_NW REUNION_R50_NE REUNION_R50_SE REUNION_R50_SW REUNION_R50_NW REUNION_R64_NE REUNION_R64_SE REUNION_R64_SW REUNION_R64_NW BOM_LAT BOM_LON BOM_TYPE BOM_WIND BOM_PRES BOM_TNUM BOM_CI BOM_RMW BOM_R34_NE BOM_R34_SE BOM_R34_SW BOM_R34_NW BOM_R50_NE BOM_R50_SE BOM_R50_SW BOM_R50_NW BOM_R64_NE BOM_R64_SE BOM_R64_SW BOM_R64_NW BOM_ROCI BOM_POCI BOM_EYE BOM_POS_METHOD BOM_PRES_METHOD NADI_LAT NADI_LON NADI_CAT NADI_WIND NADI_PRES WELLINGTON_LAT WELLINGTON_LON WELLINGTON_WIND WELLINGTON_PRES DS824_LAT DS824_LON DS824_STAGE DS824_WIND DS824_PRES TD9636_LAT TD9636_LON TD9636_STAGE TD9636_WIND TD9636_PRES TD9635_LAT TD9635_LON TD9635_WIND TD9635_PRES TD9635_ROCI NEUMANN_LAT NEUMANN_LON NEUMANN_CLASS NEUMANN_WIND NEUMANN_PRES MLC_LAT MLC_LON MLC_CLASS MLC_WIND MLC_PRES USA_GUST BOM_GUST BOM_GUST_PER REUNION_GUST REUNION_GUST_PER USA_SEAHGT USA_SEARAD_NE USA_SEARAD_SE USA_SEARAD_SW USA_SEARAD_NW STORM_SPEED STORM_DIR
1924271N10134 1924 37 WP MM NOT_NAMED 1924-09-26 22:00:00 NR 9.90000 134.100 main 860 860 __________O___ -1 9.90000 134.100 3 13 32
1924271N10134 1924 37 WP MM NOT_NAMED 1924-09-27 00:00:00 NR 10.2756 134.339 main 893 904 __________P___ -1 10.2756 134.339 3 13 32
1924271N10134 1924 37 WP MM NOT_NAMED 1924-09-27 03:00:00 NR 10.8356 134.684 main 947 950 __________P___ -1 10.8356 134.684 3 13 30
1924271N10134 1924 37 WP MM NOT_NAMED 1924-09-27 06:00:00 NR 11.3868 134.991 main 994 994 __________P___ -1 11.3868 134.991 3 12 26
1924271N10134 1924 37 WP MM NOT_NAMED 1924-09-27 09:00:00 NR 11.9246 135.236 main 1029 1031 __________P___ -1 11.9246 135.236 3 12 23
1924271N10134 1924 37 WP MM NOT_NAMED 1924-09-27 10:00:00 NR 12.1000 135.300 main 1042 1042 __________O___ -1 12.1000 135.300 4 11 17
1924271N10134 1924 37 WP MM NOT_NAMED 1924-09-27 12:00:00 NR 12.4455 135.397 main 1057 1059 __________P___ -1 12.4455 135.397 4 11 11
1924271N10134 1924 37 WP MM NOT_NAMED 1924-09-27 15:00:00 NR 12.9634 135.468 main 1079 1079 __________P___ -1 12.9634 135.468 4 11 3
1924271N10134 1924 37 WP MM NOT_NAMED 1924-09-27 18:00:00 NR 13.5032 135.451 main 1091 1080 __________P___ -1 13.5032 135.451 4 11 354
1924271N10134 1924 37 WP MM NOT_NAMED 1924-09-27 21:00:00 NR 14.0898 135.351 main 1093 1082 __________P___ -1 14.0898 135.351 4 12 349
1924271N10134 1924 37 WP MM NOT_NAMED 1924-09-27 22:00:00 NR 14.3000 135.300 main 1086 1081 __________O___ -1 14.3000 135.300 4 14 346
1924271N10134 1924 37 WP MM NOT_NAMED 1924-09-28 00:00:00 NR 14.7624 135.175 main 1088 1076 __________P___ -1 14.7624 135.175 4 15 343
1924271N10134 1924 37 WP MM NOT_NAMED 1924-09-28 03:00:00 NR 15.5065 134.917 main 1080 1077 __________P___ -1 15.5065 134.917 4 16 340
1924271N10134 1924 37 WP MM NOT_NAMED 1924-09-28 06:00:00 NR 16.2807 134.612 main 1083 1082 __________P___ -1 16.2807 134.612 4 17 339
1924271N10134 1924 37 WP MM NOT_NAMED 1924-09-28 09:00:00 NR 17.0504 134.299 main 1094 1090 __________P___ -1 17.0504 134.299 4 16 339
1924271N10134 1924 37 WP MM NOT_NAMED 1924-09-28 10:00:00 NR 17.3000 134.200 main 1095 1095 __________O___ -1 17.3000 134.200 4 16 340
1924271N10134 1924 37 WP MM NOT_NAMED 1924-09-28 12:00:00 NR 17.7837 134.017 main 1107 1107 __________P___ -1 17.7837 134.017 4 15 341
1924271N10134 1924 37 WP MM NOT_NAMED 1924-09-28 15:00:00 NR 18.4759 133.776 main 1127 1123 __________P___ -1 18.4759 133.776 4 14 342
1924271N10134 1924 37 WP MM NOT_NAMED 1924-09-28 18:00:00 NR 19.1392 133.563 main 1140 1136 __________P___ -1 19.1392 133.563 4 14 344
1924271N10134 1924 37 WP MM NOT_NAMED 1924-09-28 21:00:00 NR 19.7860 133.365 main 1163 1160 __________P___ -1 19.7860 133.365 4 14 344
1924271N10134 1924 37 WP MM NOT_NAMED 1924-09-28 22:00:00 NR 20.0000 133.300 main 1166 __________O___ -1 20.0000 133.300 4 13 346

デジタル台風データ・検索

IBTrACS Databaseについて

本データベースは、米国NOAAが公開する1842年以降の世界の熱帯低気圧のベストトラックデータアーカイブInternational Best Track Archive for Climate Stewardship (IBTrACS)を、ウェブで閲覧しやすい形式に変換したものです。

最終更新日:2021-11-26